createdAt,value
2019-05-29T00:00:50.286Z,46.66
2019-05-29T00:03:22.062Z,46.65
2019-05-29T00:05:54.193Z,46.52
2019-05-29T00:08:25.900Z,46.43
2019-05-29T00:10:58.916Z,47.30
2019-05-29T00:13:30.688Z,47.91
2019-05-29T00:16:02.977Z,47.91
2019-05-29T00:18:34.695Z,47.99
2019-05-29T00:21:06.865Z,48.53
2019-05-29T00:23:38.564Z,48.17
2019-05-29T00:26:44.754Z,47.45
2019-05-29T00:41:09.207Z,44.61
2019-05-29T00:43:41.078Z,46.09
2019-05-29T00:46:13.428Z,46.53
2019-05-29T00:48:45.312Z,45.94
2019-05-29T00:51:17.212Z,47.02
2019-05-29T00:53:50.616Z,47.60
2019-05-29T00:56:23.708Z,48.11
2019-05-29T00:58:55.478Z,48.04
2019-05-29T01:01:29.873Z,46.72
2019-05-29T01:04:01.843Z,46.42
2019-05-29T01:06:33.590Z,47.20
2019-05-29T01:09:06.021Z,47.42
2019-05-29T01:11:39.571Z,46.67
2019-05-29T01:14:11.391Z,46.65
2019-05-29T01:16:43.122Z,46.29
2019-05-29T01:19:27.240Z,47.07
2019-05-29T01:21:59.114Z,46.96
2019-05-29T01:24:33.233Z,46.80
2019-05-29T01:27:05.094Z,46.18
2019-05-29T01:29:38.778Z,46.92
2019-05-29T01:32:10.517Z,47.67
2019-05-29T01:34:42.299Z,47.40
2019-05-29T01:37:14.540Z,46.50
2019-05-29T01:39:46.404Z,46.12
2019-05-29T01:42:19.439Z,47.34
2019-05-29T01:45:06.554Z,48.04
2019-05-29T01:47:25.494Z,47.69
2019-05-29T01:49:57.288Z,47.92
2019-05-29T01:52:29.119Z,47.68
2019-05-29T01:55:01.409Z,47.81
2019-05-29T01:57:33.539Z,47.06
2019-05-29T02:00:05.787Z,47.22
2019-05-29T02:02:37.619Z,47.79
2019-05-29T02:05:11.318Z,48.08
2019-05-29T02:07:43.101Z,48.20
2019-05-29T02:10:15.996Z,48.52
2019-05-29T02:12:47.998Z,48.49
2019-05-29T02:15:29.364Z,47.84
2019-05-29T02:17:53.348Z,46.92
2019-05-29T02:20:25.404Z,46.18
2019-05-29T02:22:57.233Z,45.78
2019-05-29T02:25:28.981Z,45.42
2019-05-29T02:28:00.727Z,45.31
2019-05-29T02:30:34.478Z,45.66
2019-05-29T02:33:07.393Z,46.02
2019-05-29T02:35:39.298Z,46.25
2019-05-29T02:38:11.075Z,46.31
2019-05-29T02:40:42.797Z,46.18
2019-05-29T02:43:16.539Z,45.75
2019-05-29T02:45:54.156Z,46.89
2019-05-29T02:48:23.177Z,47.57
2019-05-29T02:50:55.614Z,46.55
2019-05-29T02:53:30.857Z,46.14
2019-05-29T02:56:02.993Z,46.08
2019-05-29T02:58:34.747Z,46.02
2019-05-29T03:01:06.771Z,45.86
2019-05-29T03:03:40.107Z,45.98
2019-05-29T03:06:12.073Z,44.80
2019-05-29T03:08:43.844Z,44.57
2019-05-29T03:11:15.582Z,44.60
2019-05-29T03:13:47.431Z,46.04
2019-05-29T03:16:19.377Z,46.26
2019-05-29T03:18:51.178Z,46.54
2019-05-29T03:21:24.103Z,46.59
2019-05-29T03:23:56.612Z,46.34
2019-05-29T03:26:30.316Z,46.21
2019-05-29T03:29:01.859Z,47.90
2019-05-29T03:31:39.687Z,48.25
2019-05-29T03:34:07.130Z,48.31
2019-05-29T03:36:47.393Z,48.08
2019-05-29T03:39:13.934Z,47.25
2019-05-29T03:41:45.722Z,46.38
2019-05-29T03:44:17.575Z,46.31
2019-05-29T03:46:52.533Z,45.90
2019-05-29T03:49:24.337Z,47.46
2019-05-29T03:51:57.148Z,48.07
2019-05-29T03:54:30.614Z,47.41
2019-05-29T03:57:05.794Z,46.79
2019-05-29T03:59:37.659Z,46.41
2019-05-29T04:02:11.815Z,46.41
2019-05-29T04:04:43.608Z,46.64
2019-05-29T04:07:15.343Z,46.90
2019-05-29T04:09:47.115Z,47.65
2019-05-29T04:12:19.420Z,47.45
2019-05-29T04:14:51.286Z,47.59
2019-05-29T04:17:23.033Z,47.62
2019-05-29T04:19:55.975Z,47.77
2019-05-29T04:22:32.896Z,47.59
2019-05-29T04:25:05.472Z,48.04
2019-05-29T04:27:38.465Z,48.16
2019-05-29T04:30:10.972Z,48.50
2019-05-29T04:32:42.695Z,48.55
2019-05-29T04:35:14.959Z,48.86
2019-05-29T04:37:46.671Z,49.03
2019-05-29T04:40:18.392Z,49.06
2019-05-29T04:42:50.147Z,48.93
2019-05-29T04:45:21.868Z,49.34
2019-05-29T04:47:53.614Z,49.42
2019-05-29T04:50:25.353Z,49.80
2019-05-29T04:52:57.090Z,49.91
2019-05-29T04:55:31.218Z,50.08
2019-05-29T04:58:03.384Z,50.26
2019-05-29T05:00:35.293Z,50.69
2019-05-29T05:03:07.064Z,51.21
2019-05-29T05:05:39.567Z,50.61
2019-05-29T05:08:11.577Z,50.24
2019-05-29T05:10:43.290Z,50.38
2019-05-29T05:13:15.094Z,50.43
2019-05-29T05:15:46.953Z,51.14
2019-05-29T05:18:18.735Z,51.14
2019-05-29T05:20:52.137Z,50.81
2019-05-29T05:23:23.923Z,50.67
2019-05-29T05:25:55.655Z,50.84
2019-05-29T05:28:27.551Z,50.84
2019-05-29T05:30:59.275Z,50.87
2019-05-29T05:33:31.090Z,50.68
2019-05-29T05:36:02.824Z,50.89
2019-05-29T05:38:34.732Z,50.38
2019-05-29T05:41:06.523Z,50.01
2019-05-29T05:43:38.989Z,50.22
2019-05-29T05:46:11.259Z,50.02
2019-05-29T05:48:43.018Z,49.86
2019-05-29T05:51:14.798Z,47.42
2019-05-29T05:53:46.581Z,44.58
2019-05-29T05:56:18.378Z,42.26
2019-05-29T05:58:50.150Z,40.60
2019-05-29T06:01:22.511Z,38.92
2019-05-29T06:03:56.266Z,38.75
2019-05-29T06:06:28.123Z,37.60
2019-05-29T06:08:59.871Z,36.25
2019-05-29T06:11:32.213Z,35.11
2019-05-29T06:14:04.354Z,34.29
2019-05-29T06:16:36.478Z,34.06
2019-05-29T06:19:08.465Z,33.78
2019-05-29T06:21:40.913Z,33.84
2019-05-29T06:24:14.443Z,33.34
2019-05-29T06:26:46.220Z,32.75
2019-05-29T06:29:18.436Z,32.65
2019-05-29T06:31:52.281Z,32.10
2019-05-29T06:34:24.105Z,32.14
2019-05-29T06:36:55.888Z,31.53
2019-05-29T06:39:27.675Z,30.89
2019-05-29T06:41:59.485Z,30.55
2019-05-29T06:44:31.230Z,30.33
2019-05-29T06:47:04.206Z,29.92
2019-05-29T06:49:36.027Z,29.55
2019-05-29T06:52:09.289Z,28.92
2019-05-29T06:54:42.072Z,28.47
2019-05-29T06:57:14.076Z,28.59
2019-05-29T06:59:46.287Z,28.12
2019-05-29T07:02:18.063Z,28.47
2019-05-29T07:04:49.783Z,28.18
2019-05-29T07:07:21.885Z,27.98
2019-05-29T07:09:54.028Z,27.57
2019-05-29T07:12:25.805Z,27.48
2019-05-29T07:14:57.531Z,26.86
2019-05-29T07:17:29.349Z,26.97
2019-05-29T07:20:03.983Z,26.46
2019-05-29T07:22:40.788Z,25.97
2019-05-29T07:25:12.712Z,26.17
2019-05-29T07:27:45.134Z,26.05
2019-05-29T07:30:17.556Z,25.29
2019-05-29T07:32:56.912Z,25.80
2019-05-29T07:35:23.145Z,25.84
2019-05-29T07:37:54.888Z,25.39
2019-05-29T07:40:26.589Z,25.33
2019-05-29T07:42:58.420Z,25.78
2019-05-29T07:45:30.358Z,25.92
2019-05-29T07:48:02.396Z,25.37
2019-05-29T07:50:35.421Z,25.58
2019-05-29T07:53:07.183Z,24.68
2019-05-29T07:55:38.905Z,25.55
2019-05-29T07:58:10.747Z,26.50
2019-05-29T08:01:06.332Z,27.08
2019-05-29T08:03:16.670Z,26.02
2019-05-29T08:05:52.652Z,25.70
2019-05-29T08:08:23.843Z,24.84
2019-05-29T08:10:55.681Z,26.09
2019-05-29T08:13:29.217Z,25.53
2019-05-29T08:16:03.111Z,26.96
2019-05-29T08:18:34.611Z,27.37
2019-05-29T08:21:06.344Z,27.08
2019-05-29T08:23:38.163Z,27.74
2019-05-29T08:26:09.940Z,27.49
2019-05-29T08:28:42.818Z,27.67
2019-05-29T08:31:14.728Z,26.88
2019-05-29T08:33:47.512Z,26.65
2019-05-29T08:36:19.308Z,28.26
2019-05-29T08:38:51.903Z,27.12
2019-05-29T08:41:23.769Z,26.79
2019-05-29T08:43:55.547Z,27.19
2019-05-29T08:46:32.617Z,26.93
2019-05-29T08:49:02.882Z,27.17
2019-05-29T08:51:34.624Z,27.30
2019-05-29T08:54:22.867Z,27.60
2019-05-29T08:56:39.946Z,26.68
2019-05-29T08:59:11.804Z,26.54
2019-05-29T09:01:45.005Z,26.84
2019-05-29T09:04:17.040Z,26.25
2019-05-29T09:06:49.242Z,29.04
2019-05-29T09:09:21.189Z,27.18
2019-05-29T09:11:53.729Z,27.32
2019-05-29T09:14:25.925Z,28.05
2019-05-29T09:16:57.978Z,27.23
2019-05-29T09:19:31.355Z,26.62
2019-05-29T09:22:03.057Z,25.95
2019-05-29T09:24:34.800Z,28.05
2019-05-29T09:27:06.622Z,27.25
2019-05-29T09:29:38.330Z,26.26
2019-05-29T09:32:10.072Z,25.31
2019-05-29T09:34:41.788Z,25.26
2019-05-29T09:37:14.202Z,25.98
2019-05-29T09:39:46.983Z,25.49
2019-05-29T09:42:20.328Z,25.57
2019-05-29T09:44:52.204Z,25.91
2019-05-29T09:47:24.317Z,25.83
2019-05-29T09:49:56.066Z,27.15
2019-05-29T09:52:30.649Z,25.47
2019-05-29T09:55:03.153Z,26.52
2019-05-29T09:57:34.971Z,27.08
2019-05-29T10:00:07.468Z,26.25
2019-05-29T10:02:39.512Z,27.04
2019-05-29T10:05:11.467Z,26.26
2019-05-29T10:07:43.436Z,26.32
2019-05-29T10:10:15.904Z,25.07
2019-05-29T10:12:47.674Z,25.20
2019-05-29T10:15:19.949Z,24.49
2019-05-29T10:17:51.735Z,23.84
2019-05-29T10:20:23.462Z,22.90
2019-05-29T10:22:55.694Z,24.42
2019-05-29T10:25:28.549Z,25.79
2019-05-29T10:28:00.416Z,24.22
2019-05-29T10:30:32.195Z,24.47
2019-05-29T10:33:04.023Z,23.93
2019-05-29T10:35:35.783Z,25.20
2019-05-29T10:38:07.572Z,26.42
2019-05-29T10:40:39.377Z,27.30
2019-05-29T10:43:11.128Z,24.96
2019-05-29T10:45:43.479Z,24.77
2019-05-29T10:48:15.425Z,25.78
2019-05-29T10:50:50.977Z,24.16
2019-05-29T10:53:21.406Z,24.24
2019-05-29T10:55:54.787Z,23.62
2019-05-29T10:58:26.998Z,24.57
2019-05-29T11:00:58.843Z,24.85
2019-05-29T11:03:30.641Z,24.85
2019-05-29T11:06:02.493Z,25.16
2019-05-29T11:08:34.334Z,24.88
2019-05-29T11:11:06.183Z,24.32
2019-05-29T11:13:37.904Z,24.40
2019-05-29T11:16:09.729Z,23.54
2019-05-29T11:18:43.404Z,23.63
2019-05-29T11:21:15.154Z,24.05
2019-05-29T11:23:47.732Z,24.49
2019-05-29T11:26:20.590Z,24.39
2019-05-29T11:28:52.477Z,24.52
2019-05-29T11:31:25.710Z,26.21
2019-05-29T11:33:57.460Z,27.91
2019-05-29T11:36:29.333Z,28.16
2019-05-29T11:39:05.973Z,27.62
2019-05-29T11:41:35.512Z,29.59
2019-05-29T11:44:07.247Z,28.71
2019-05-29T11:46:39.004Z,28.93
2019-05-29T11:49:10.779Z,30.89
2019-05-29T11:51:44.398Z,29.79
2019-05-29T11:54:16.529Z,29.65
2019-05-29T11:56:48.274Z,29.52
2019-05-29T11:59:20.024Z,30.70
2019-05-29T12:01:52.932Z,30.02
2019-05-29T12:04:26.979Z,30.25
2019-05-29T12:06:59.519Z,30.69
2019-05-29T12:09:33.623Z,29.14
2019-05-29T12:12:09.060Z,29.14
2019-05-29T12:14:58.760Z,29.75
2019-05-29T12:17:15.080Z,28.75
2019-05-29T12:19:47.016Z,28.89
2019-05-29T12:22:20.368Z,28.57
2019-05-29T12:24:52.501Z,28.37
2019-05-29T12:27:24.334Z,28.47
2019-05-29T12:29:56.702Z,28.50
2019-05-29T12:32:28.816Z,28.53
2019-05-29T12:35:03.142Z,28.34
2019-05-29T12:37:35.347Z,28.72
2019-05-29T12:40:07.412Z,29.29
2019-05-29T12:42:43.427Z,29.62
2019-05-29T12:45:15.588Z,29.63
2019-05-29T12:47:48.815Z,28.74
2019-05-29T12:50:20.604Z,29.55
2019-05-29T12:52:53.577Z,28.41
2019-05-29T12:55:25.645Z,28.31
2019-05-29T12:57:58.043Z,27.64
2019-05-29T13:00:29.813Z,27.78
2019-05-29T13:03:02.957Z,27.73
2019-05-29T13:05:35.148Z,27.42
2019-05-29T13:08:06.870Z,27.76
2019-05-29T13:10:38.713Z,28.22
2019-05-29T13:13:11.385Z,27.92
2019-05-29T13:15:43.371Z,28.82
2019-05-29T13:18:15.105Z,27.87
2019-05-29T13:20:46.860Z,27.56
2019-05-29T13:23:18.609Z,27.65
2019-05-29T13:25:50.341Z,27.78
2019-05-29T13:28:22.102Z,26.73
2019-05-29T13:30:55.723Z,27.08
2019-05-29T13:33:27.880Z,27.52
2019-05-29T13:36:00.200Z,28.34
2019-05-29T13:38:32.252Z,27.54
2019-05-29T13:41:04.544Z,29.08
2019-05-29T13:43:36.471Z,27.96
2019-05-29T13:46:08.726Z,27.88
2019-05-29T13:48:43.194Z,27.96
2019-05-29T13:51:14.968Z,28.84
2019-05-29T13:54:01.989Z,28.54
2019-05-29T13:56:24.071Z,27.48
2019-05-29T13:58:53.667Z,27.98
2019-05-29T14:01:25.377Z,27.13
2019-05-29T14:04:02.489Z,28.09
2019-05-29T14:06:34.441Z,28.00
2019-05-29T14:09:09.804Z,27.49
2019-05-29T14:11:41.933Z,28.18
2019-05-29T14:14:13.903Z,28.19
2019-05-29T14:16:47.149Z,27.00
2019-05-29T14:19:18.898Z,27.19
2019-05-29T14:21:50.704Z,26.67
2019-05-29T14:24:29.340Z,27.05
2019-05-29T14:26:56.010Z,27.83
2019-05-29T14:29:27.849Z,27.35
2019-05-29T14:32:00.980Z,26.49
2019-05-29T14:34:34.788Z,26.38
2019-05-29T14:37:09.760Z,26.53
2019-05-29T14:39:41.743Z,26.92
2019-05-29T14:42:13.483Z,26.21
2019-05-29T14:44:46.895Z,26.72
2019-05-29T14:47:18.701Z,25.34
2019-05-29T14:49:50.551Z,25.71
2019-05-29T14:52:22.374Z,26.47
2019-05-29T14:54:54.436Z,26.61
2019-05-29T14:57:28.684Z,25.93
2019-05-29T15:00:00.528Z,25.59
2019-05-29T15:02:33.351Z,25.08
2019-05-29T15:05:05.633Z,25.71
2019-05-29T15:07:39.224Z,25.01
2019-05-29T15:10:24.856Z,25.53
2019-05-29T15:12:48.350Z,25.11
2019-05-29T15:15:20.075Z,24.81
2019-05-29T15:17:53.783Z,24.72
2019-05-29T15:20:25.559Z,26.14
2019-05-29T15:22:57.277Z,24.96
2019-05-29T15:25:29.218Z,24.77
2019-05-29T15:28:00.979Z,24.96
2019-05-29T15:30:32.827Z,24.12
2019-05-29T15:33:04.665Z,24.24
2019-05-29T15:35:36.427Z,23.87
2019-05-29T15:38:08.719Z,24.94
2019-05-29T15:40:40.857Z,24.33
2019-05-29T15:43:12.896Z,24.56
2019-05-29T15:45:45.072Z,24.24
2019-05-29T15:48:18.893Z,25.03
2019-05-29T15:50:50.671Z,25.26
2019-05-29T15:53:23.468Z,24.28
2019-05-29T15:55:55.228Z,24.72
2019-05-29T15:58:27.387Z,24.72
2019-05-29T16:00:59.313Z,24.77
2019-05-29T16:03:31.075Z,25.00
2019-05-29T16:06:02.843Z,25.17
2019-05-29T16:08:35.848Z,25.24
2019-05-29T16:11:08.595Z,25.93
2019-05-29T16:13:40.527Z,25.18
2019-05-29T16:16:13.125Z,25.37
2019-05-29T16:18:45.019Z,25.48
2019-05-29T16:21:16.903Z,25.67
2019-05-29T16:23:48.707Z,26.03
2019-05-29T16:26:22.043Z,26.06
2019-05-29T16:28:53.839Z,25.26
2019-05-29T16:31:25.607Z,25.34
2019-05-29T16:33:57.367Z,25.78
2019-05-29T16:36:29.101Z,25.60
2019-05-29T16:39:01.291Z,24.96
2019-05-29T16:41:34.551Z,25.34
2019-05-29T16:44:06.801Z,25.17
2019-05-29T16:46:38.517Z,25.15
2019-05-29T16:49:10.288Z,24.95
2019-05-29T16:51:42.272Z,24.92
2019-05-29T16:54:14.946Z,25.65
2019-05-29T16:56:47.098Z,25.18
2019-05-29T16:59:19.249Z,25.34
2019-05-29T17:01:51.428Z,25.66
2019-05-29T17:04:23.905Z,25.63
2019-05-29T17:06:55.770Z,25.60
2019-05-29T17:09:27.535Z,25.38
2019-05-29T17:12:00.376Z,25.69
2019-05-29T17:14:33.949Z,25.31
2019-05-29T17:17:08.256Z,25.20
2019-05-29T17:19:41.927Z,25.79
2019-05-29T17:22:16.591Z,25.54
2019-05-29T17:24:50.043Z,26.29
2019-05-29T17:27:23.505Z,26.02
2019-05-29T17:29:55.210Z,25.41
2019-05-29T17:32:27.673Z,25.52
2019-05-29T17:34:59.461Z,25.62
2019-05-29T17:37:31.329Z,25.35
2019-05-29T17:40:03.332Z,25.67
2019-05-29T17:42:35.130Z,25.15
2019-05-29T17:45:08.687Z,26.61
2019-05-29T17:47:41.072Z,26.02
2019-05-29T17:50:12.944Z,26.25
2019-05-29T17:52:44.843Z,25.23
2019-05-29T17:55:19.976Z,26.09
2019-05-29T17:57:53.342Z,26.64
2019-05-29T18:00:26.563Z,26.58
2019-05-29T18:02:58.633Z,27.41
2019-05-29T18:05:30.914Z,26.67
2019-05-29T18:08:02.648Z,27.16
2019-05-29T18:10:34.819Z,27.41
2019-05-29T18:13:06.601Z,26.93
2019-05-29T18:15:38.511Z,26.09
2019-05-29T18:18:10.421Z,26.42
2019-05-29T18:20:42.343Z,26.74
2019-05-29T18:23:14.066Z,27.11
2019-05-29T18:25:45.951Z,27.50
2019-05-29T18:28:17.780Z,27.77
2019-05-29T18:30:49.653Z,27.77
2019-05-29T18:33:22.875Z,27.57
2019-05-29T18:35:54.789Z,27.54
2019-05-29T18:38:26.628Z,27.78
2019-05-29T18:40:58.484Z,28.24
2019-05-29T18:43:30.243Z,27.78
2019-05-29T18:46:04.293Z,28.44
2019-05-29T18:48:37.142Z,29.27
2019-05-29T18:51:08.964Z,29.67
2019-05-29T18:53:40.751Z,29.75
2019-05-29T18:56:12.553Z,29.81
2019-05-29T18:58:44.291Z,29.87
2019-05-29T19:01:16.049Z,30.42
2019-05-29T19:03:48.161Z,30.30
2019-05-29T19:06:21.423Z,30.34
2019-05-29T19:08:53.366Z,30.82
2019-05-29T19:11:25.871Z,30.98
2019-05-29T19:13:57.748Z,31.05
2019-05-29T19:16:30.036Z,31.04
2019-05-29T19:19:02.003Z,30.82
2019-05-29T19:21:33.789Z,31.16
2019-05-29T19:24:05.613Z,31.43
2019-05-29T19:26:37.649Z,31.37
2019-05-29T19:29:09.475Z,31.32
2019-05-29T19:31:42.869Z,31.73
2019-05-29T19:34:16.601Z,32.50
2019-05-29T19:36:48.520Z,33.41
2019-05-29T19:39:20.331Z,34.47
2019-05-29T19:41:54.003Z,35.03
2019-05-29T19:44:26.241Z,35.82
2019-05-29T19:46:58.614Z,36.44
2019-05-29T19:49:33.005Z,36.75
2019-05-29T19:52:06.871Z,36.95
2019-05-29T19:54:38.606Z,37.26
2019-05-29T19:57:10.425Z,37.38
2019-05-29T19:59:42.211Z,37.94
2019-05-29T20:02:14.059Z,37.84
2019-05-29T20:04:45.802Z,39.28
2019-05-29T20:07:17.633Z,38.44
2019-05-29T20:09:49.413Z,38.64
2019-05-29T20:12:21.295Z,39.99
2019-05-29T20:14:53.547Z,40.40
2019-05-29T20:17:27.932Z,41.43
2019-05-29T20:20:00.050Z,41.91
2019-05-29T20:22:32.587Z,42.42
2019-05-29T20:25:05.573Z,42.62
2019-05-29T20:27:38.530Z,42.80
2019-05-29T20:30:16.320Z,43.05
2019-05-29T20:32:48.526Z,43.24
2019-05-29T20:35:20.491Z,43.24
2019-05-29T20:37:52.627Z,43.71
2019-05-29T20:40:25.685Z,43.58
2019-05-29T20:42:57.513Z,44.03
2019-05-29T20:45:29.828Z,43.55
2019-05-29T20:48:01.752Z,43.78
2019-05-29T20:50:36.999Z,44.50
2019-05-29T20:53:09.345Z,44.96
2019-05-29T20:55:41.905Z,45.90
2019-05-29T20:58:24.161Z,46.23
2019-05-29T21:00:49.442Z,46.49
2019-05-29T21:03:21.309Z,46.98
2019-05-29T21:05:53.930Z,47.33
2019-05-29T21:08:46.824Z,47.79
2019-05-29T21:11:21.748Z,47.30
2019-05-29T21:13:53.561Z,47.34
2019-05-29T21:16:26.789Z,48.19
2019-05-29T21:18:58.632Z,48.17
2019-05-29T21:21:34.116Z,47.35
2019-05-29T21:24:06.303Z,47.15
2019-05-29T21:26:38.919Z,47.25
2019-05-29T21:29:13.659Z,48.18
2019-05-29T21:31:45.781Z,48.84
2019-05-29T21:34:17.976Z,49.21
2019-05-29T21:36:50.043Z,49.68
2019-05-29T21:39:22.069Z,50.37
2019-05-29T21:41:54.452Z,50.58
2019-05-29T21:44:27.906Z,50.91
2019-05-29T21:46:59.888Z,50.65
2019-05-29T21:49:32.025Z,50.54
2019-05-29T21:52:03.926Z,50.28
2019-05-29T21:54:37.327Z,50.67
2019-05-29T21:57:10.640Z,50.67
2019-05-29T21:59:42.411Z,51.48
2019-05-29T22:02:14.215Z,51.32
2019-05-29T22:04:46.492Z,51.76
2019-05-29T22:07:18.609Z,52.21
2019-05-29T22:09:54.493Z,52.24
2019-05-29T22:12:32.830Z,52.52
2019-05-29T22:15:06.274Z,52.57
2019-05-29T22:17:38.579Z,52.45
2019-05-29T22:20:10.443Z,53.00
2019-05-29T22:22:42.398Z,53.12
2019-05-29T22:25:14.384Z,53.38
2019-05-29T22:27:46.273Z,53.86
2019-05-29T22:30:18.031Z,53.82
2019-05-29T22:32:51.155Z,54.15
2019-05-29T22:35:23.864Z,53.46
2019-05-29T22:37:55.767Z,54.01
2019-05-29T22:40:27.455Z,53.76
2019-05-29T22:42:59.875Z,53.78
2019-05-29T22:45:31.716Z,53.85
2019-05-29T22:48:05.720Z,54.16
2019-05-29T22:50:39.888Z,54.26
2019-05-29T22:53:12.897Z,55.07
2019-05-29T22:55:46.448Z,55.97
2019-05-29T22:58:20.539Z,56.73
2019-05-29T23:00:54.342Z,56.51
2019-05-29T23:03:26.120Z,56.83
2019-05-29T23:05:58.284Z,56.57
2019-05-29T23:08:30.034Z,56.55
2019-05-29T23:11:03.002Z,56.39
2019-05-29T23:13:35.304Z,56.46
2019-05-29T23:16:07.191Z,56.38
2019-05-29T23:18:39.000Z,56.32
2019-05-29T23:21:10.865Z,56.38
2019-05-29T23:23:42.907Z,56.45
2019-05-29T23:26:14.862Z,56.19
2019-05-29T23:28:48.690Z,56.18
2019-05-29T23:31:22.142Z,56.33
2019-05-29T23:34:03.158Z,57.24
2019-05-29T23:36:35.848Z,58.01
2019-05-29T23:39:08.246Z,57.50
2019-05-29T23:41:40.285Z,57.55
2019-05-29T23:44:12.306Z,57.87
2019-05-29T23:47:17.561Z,58.09
2019-05-29T23:50:07.197Z,58.56
2019-05-29T23:52:40.177Z,58.66
2019-05-29T23:55:16.030Z,58.91
2019-05-29T23:57:53.717Z,58.54
